Japan Airlines Virtual Airport Information Service

Dubai International Airport

ICAO: OMDB Country: United Arab Emirates
Latitude: 25.2528 Longitude: 55.3644
Latest Arrival : SCC7782 (FACT-OMDB) Latest Departure : JALJUMP (OMDB-RKSI)


WX CaptureLIVE
Data provided by noaa.gov | Fetched at 08:16:41

METAR : OMDB 090800Z 27006KT 230V320 7000 NSC 42/18 Q0997 BECMG 30012KT

TAF : OMDB 090452Z 0906/1012 17005KT 7000 NSC PROB30 0906/0911 4000 DU BECMG 0908/0910 33014KT PROB30 TEMPO 0911/0915 12018G28KT 1500 BLDU FEW040CB BECMG 0917/0919 16007KT BECMG 1006/1008 29013KT


Runway Data for OMDB
Data provided by openaviationdata.com

Runway ID Mag Var Hdg Length Elevation Surface ILS Freq ILS Id ILS Slope
12L 1 119° 13143 ft 34 ft Asphalt 110.1 IDBL 3
12R 1 119° 14606 ft 34 ft Asphalt 109.5 IDBE 3
30L 1 299° 14606 ft 34 ft Asphalt 111.3 IDBW 3
30R 1 299° 13143 ft 34 ft Asphalt 110.9 IDBR 3

Dubai International Airport, United Arab Emirates
Use only for reference purposes



Not for navigational purposes.